Time;durP1;ratioP1;P1;durP2;ratioP2;P2;SDS_P1;SDS_P2;PMS_P1;PMS_P2;Temp;Humidity;BMP_temperature;BMP_pressure;BME280_temperature;BME280_humidity;BME280_pressure;Samples;Min_cycle;Max_cycle;Signal;HPM_P1;HPM_P2
2022/07/01 00:01:09;;;;;;;1.02;0.82;;;23.90;49.90;;;;;;6268923;28;20021;-69
2022/07/01 00:04:11;;;;;;;1.00;0.73;;;23.90;49.90;;;;;;6268922;28;20031;-69
2022/07/01 00:07:12;;;;;;;0.73;0.70;;;23.90;50.10;;;;;;6268507;28;20021;-69
2022/07/01 00:10:13;;;;;;;0.73;0.73;;;23.90;50.60;;;;;;6268815;28;20459;-69
2022/07/01 00:13:14;;;;;;;0.73;0.68;;;23.90;50.10;;;;;;6268365;28;20033;-67
2022/07/01 00:16:15;;;;;;;1.05;0.82;;;23.90;50.00;;;;;;6268558;28;20505;-69
2022/07/01 00:19:16;;;;;;;1.00;0.77;;;23.90;50.00;;;;;;6268462;28;20573;-68
2022/07/01 00:22:17;;;;;;;0.80;0.80;;;23.90;50.00;;;;;;6268270;28;20098;-69
2022/07/01 00:25:18;;;;;;;1.05;0.95;;;23.90;50.10;;;;;;6267660;28;20025;-69
2022/07/01 00:28:19;;;;;;;0.90;0.80;;;23.90;50.10;;;;;;6268348;28;20036;-69
2022/07/01 00:31:20;;;;;;;0.85;0.77;;;23.90;50.10;;;;;;6268717;28;20385;-69
2022/07/01 00:34:20;;;;;;;0.75;0.75;;;23.90;50.10;;;;;;6268190;28;20025;-69
2022/07/01 00:37:21;;;;;;;0.80;0.77;;;23.80;50.70;;;;;;6266381;28;20057;-69
2022/07/01 00:40:21;;;;;;;3.60;0.80;;;23.80;50.00;;;;;;6268293;28;20534;-69
2022/07/01 00:43:24;;;;;;;0.75;0.70;;;23.80;50.10;;;;;;6267749;28;20438;-69
2022/07/01 00:46:25;;;;;;;1.15;0.90;;;23.80;50.10;;;;;;6267620;28;20021;-68
2022/07/01 00:49:26;;;;;;;0.70;0.70;;;23.80;50.10;;;;;;6267930;28;20033;-69
2022/07/01 00:52:27;;;;;;;0.73;0.73;;;23.80;50.10;;;;;;6266498;28;20078;-68
2022/07/01 00:55:28;;;;;;;0.90;0.80;;;23.80;50.10;;;;;;6267541;28;20481;-69
2022/07/01 00:58:30;;;;;;;0.98;0.80;;;23.80;50.10;;;;;;6265629;28;20108;-68
2022/07/01 01:01:31;;;;;;;0.68;0.60;;;23.80;50.10;;;;;;6267302;28;20454;-69
2022/07/01 01:04:32;;;;;;;0.88;0.80;;;23.80;50.20;;;;;;6267514;28;20031;-69
2022/07/01 01:07:33;;;;;;;0.80;0.80;;;23.80;50.20;;;;;;6266234;28;20120;-69
2022/07/01 01:10:36;;;;;;;0.80;0.80;;;23.80;50.20;;;;;;6267375;28;20028;-69
2022/07/01 01:13:37;;;;;;;0.70;0.63;;;23.80;50.20;;;;;;6267761;28;20413;-69
2022/07/01 01:16:38;;;;;;;0.98;0.80;;;23.80;50.20;;;;;;6267632;28;20025;-69
2022/07/01 01:19:43;;;;;;;0.82;0.82;;;23.80;50.20;;;;;;6266033;28;20024;-68
2022/07/01 01:22:44;;;;;;;0.77;0.77;;;23.80;50.30;;;;;;6267067;28;20490;-69
2022/07/01 01:25:47;;;;;;;1.00;0.90;;;23.80;50.30;;;;;;6266446;28;20564;-68
2022/07/01 01:28:48;;;;;;;1.02;0.80;;;23.80;50.30;;;;;;6267306;28;20049;-69
2022/07/01 01:31:49;;;;;;;0.80;0.80;;;23.80;50.30;;;;;;6267619;28;20025;-68
2022/07/01 01:34:50;;;;;;;1.05;0.95;;;23.80;50.30;;;;;;6267098;28;20560;-68
2022/07/01 01:37:51;;;;;;;0.60;0.52;;;23.80;50.40;;;;;;6265680;28;20037;-69
2022/07/01 01:40:52;;;;;;;0.73;0.70;;;23.80;50.30;;;;;;6267153;28;20108;-69
2022/07/01 01:43:53;;;;;;;1.02;0.93;;;23.80;50.40;;;;;;6267425;28;20714;-69
2022/07/01 01:46:53;;;;;;;1.10;0.93;;;23.80;50.40;;;;;;6270042;28;20033;-69
2022/07/01 01:49:54;;;;;;;0.88;0.88;;;23.80;50.40;;;;;;6271511;28;20025;-69
2022/07/01 01:52:55;;;;;;;0.95;0.88;;;23.80;50.50;;;;;;6271319;28;20458;-69
2022/07/01 01:55:55;;;;;;;0.95;0.85;;;23.80;50.40;;;;;;6271833;28;20028;-68
2022/07/01 01:58:57;;;;;;;0.88;0.77;;;23.80;50.50;;;;;;6271437;28;20441;-69
2022/07/01 02:01:58;;;;;;;1.00;0.70;;;23.80;50.50;;;;;;6271006;28;20025;-69
2022/07/01 02:04:59;;;;;;;1.33;1.23;;;23.80;50.50;;;;;;6270741;28;20107;-69
2022/07/01 02:07:59;;;;;;;1.25;0.90;;;23.80;50.50;;;;;;6269997;28;20104;-69
2022/07/01 02:11:00;;;;;;;1.00;0.77;;;23.80;50.50;;;;;;6271074;28;20362;-69
2022/07/01 02:14:01;;;;;;;1.00;0.70;;;23.80;50.50;;;;;;6270419;28;20082;-69
2022/07/01 02:17:02;;;;;;;1.05;0.95;;;23.80;50.60;;;;;;6269213;28;20033;-68
2022/07/01 02:20:04;;;;;;;0.80;0.80;;;23.80;50.60;;;;;;6271100;28;20025;-68
2022/07/01 02:23:04;;;;;;;0.93;0.88;;;23.80;50.60;;;;;;6269152;28;20047;-69
2022/07/01 02:26:05;;;;;;;0.98;0.90;;;23.80;50.60;;;;;;6270667;28;20482;-69
2022/07/01 02:29:06;;;;;;;0.98;0.88;;;23.80;50.60;;;;;;6270778;28;20084;-69
2022/07/01 02:32:07;;;;;;;0.95;0.90;;;23.80;50.70;;;;;;6269954;28;20029;-69
2022/07/01 02:35:08;;;;;;;0.80;0.80;;;23.80;50.60;;;;;;6268853;28;20021;-69
2022/07/01 02:38:08;;;;;;;1.23;0.82;;;23.80;50.70;;;;;;6269457;28;20048;-69
2022/07/01 02:41:09;;;;;;;2.00;1.17;;;23.80;50.70;;;;;;6270615;28;20013;-69
2022/07/01 02:44:10;;;;;;;1.10;1.00;;;23.80;50.70;;;;;;6269921;28;20024;-69
2022/07/01 02:47:11;;;;;;;0.80;0.80;;;23.80;50.70;;;;;;6269819;28;20573;-69
2022/07/01 02:50:13;;;;;;;0.70;0.70;;;23.80;50.70;;;;;;6270433;28;20397;-69
2022/07/01 02:53:14;;;;;;;1.00;0.90;;;23.70;50.60;;;;;;6268887;28;20150;-69
2022/07/01 02:56:14;;;;;;;0.90;0.90;;;23.80;50.60;;;;;;6269216;28;20489;-69
2022/07/01 02:59:15;;;;;;;1.00;0.90;;;23.80;50.70;;;;;;6268482;28;20025;-68
2022/07/01 03:02:16;;;;;;;0.80;0.80;;;23.70;50.70;;;;;;6269394;28;20230;-68
2022/07/01 03:05:17;;;;;;;1.00;0.90;;;23.80;50.80;;;;;;6269464;28;20021;-69
2022/07/01 03:08:17;;;;;;;1.35;1.10;;;23.80;50.80;;;;;;6269210;28;20033;-69
2022/07/01 03:11:18;;;;;;;0.98;0.90;;;23.70;50.70;;;;;;6269927;28;20104;-69
2022/07/01 03:14:19;;;;;;;1.00;0.90;;;23.70;50.70;;;;;;6269226;28;20152;-69
2022/07/01 03:17:21;;;;;;;1.10;1.00;;;23.80;50.80;;;;;;6269178;28;20032;-68
2022/07/01 03:20:21;;;;;;;1.20;1.10;;;23.70;50.70;;;;;;6267792;28;20110;-68
2022/07/01 03:23:22;;;;;;;1.45;0.95;;;23.70;50.70;;;;;;6269401;28;20032;-69
2022/07/01 03:26:23;;;;;;;1.17;1.08;;;23.70;50.70;;;;;;6268310;28;20031;-69
2022/07/01 03:29:23;;;;;;;1.65;1.00;;;23.70;50.80;;;;;;6267810;28;20162;-69
2022/07/01 03:32:24;;;;;;;1.00;0.90;;;23.70;50.70;;;;;;6268574;28;20025;-68
2022/07/01 03:35:39;;;;;;;1.35;0.98;;;23.70;50.80;;;;;;6267849;28;20025;-69
2022/07/01 03:38:40;;;;;;;1.27;1.13;;;23.70;50.80;;;;;;6268414;28;20442;-69
2022/07/01 03:41:40;;;;;;;1.05;0.95;;;23.70;50.80;;;;;;6268715;28;20263;-69
2022/07/01 03:44:41;;;;;;;1.05;0.90;;;23.70;50.80;;;;;;6268265;28;20020;-69
2022/07/01 03:47:49;;;;;;;1.25;1.10;;;23.70;50.90;;;;;;6268495;28;20021;-69
2022/07/01 03:50:50;;;;;;;0.80;0.80;;;23.70;50.80;;;;;;6268787;28;20032;-68
2022/07/01 03:57:10;;;;;;;0.95;0.93;;;23.70;50.90;;;;;;6268298;28;20112;-69
2022/07/01 04:00:11;;;;;;;1.15;0.93;;;23.70;50.90;;;;;;6267647;28;20078;-69
2022/07/01 04:03:12;;;;;;;2.00;1.02;;;23.70;50.90;;;;;;6267240;28;20025;-68
2022/07/01 04:06:12;;;;;;;1.20;1.10;;;23.70;50.90;;;;;;6266275;28;20029;-69
2022/07/01 04:09:15;;;;;;;1.95;1.23;;;23.70;50.90;;;;;;6266536;28;20025;-69
2022/07/01 04:12:16;;;;;;;1.75;1.10;;;23.70;51.00;;;;;;6267270;28;20021;-69
2022/07/01 04:15:17;;;;;;;1.30;1.20;;;23.70;50.90;;;;;;6267150;28;20102;-69
2022/07/01 04:18:18;;;;;;;1.15;1.02;;;23.70;51.00;;;;;;6266446;28;20037;-69
2022/07/01 04:24:38;;;;;;;1.08;0.98;;;23.70;51.00;;;;;;6268007;28;20021;-69
2022/07/01 04:27:39;;;;;;;0.95;0.82;;;23.70;51.00;;;;;;6266847;28;20032;-69
2022/07/01 04:30:39;;;;;;;0.98;0.88;;;23.70;51.00;;;;;;6266448;28;20021;-69
2022/07/01 04:33:40;;;;;;;1.10;1.00;;;23.70;51.00;;;;;;6267362;28;20021;-69
2022/07/01 04:36:42;;;;;;;1.00;0.90;;;23.70;51.70;;;;;;6266149;28;20037;-69
2022/07/01 04:39:43;;;;;;;1.42;1.10;;;23.70;51.10;;;;;;6267473;28;20432;-68
2022/07/01 04:42:44;;;;;;;0.75;0.75;;;23.70;51.00;;;;;;6267988;28;20056;-69
2022/07/01 04:45:45;;;;;;;1.08;0.98;;;23.70;51.00;;;;;;6265747;28;20078;-68
2022/07/01 04:48:46;;;;;;;1.27;1.10;;;23.70;51.00;;;;;;6268086;28;20402;-68
2022/07/01 04:51:46;;;;;;;1.33;1.15;;;23.70;51.10;;;;;;6267861;28;20029;-69
2022/07/01 04:54:47;;;;;;;1.08;0.98;;;23.70;51.10;;;;;;6268185;28;20100;-69
2022/07/01 04:57:48;;;;;;;1.10;1.00;;;23.70;51.10;;;;;;6267492;28;20032;-69
2022/07/01 05:00:48;;;;;;;1.35;1.25;;;23.70;51.10;;;;;;6267091;28;20553;-68
2022/07/01 05:03:49;;;;;;;0.98;0.90;;;23.70;51.10;;;;;;6267775;28;20445;-69
2022/07/01 05:06:50;;;;;;;1.30;1.17;;;23.70;51.10;;;;;;6266643;28;20025;-69
2022/07/01 05:09:50;;;;;;;1.17;1.00;;;23.70;51.10;;;;;;6266302;28;20025;-69
2022/07/01 05:12:51;;;;;;;1.08;0.98;;;23.70;51.10;;;;;;6266542;28;20063;-69
2022/07/01 05:15:53;;;;;;;1.38;0.98;;;23.70;51.10;;;;;;6266546;28;20029;-69
2022/07/01 05:22:13;;;;;;;1.00;0.90;;;23.70;51.10;;;;;;6272558;28;20025;-69
2022/07/01 05:25:13;;;;;;;1.35;1.00;;;23.70;51.10;;;;;;6272379;28;20024;-68
2022/07/01 05:28:14;;;;;;;1.35;1.02;;;23.70;51.10;;;;;;6272221;28;20032;-69
2022/07/01 05:31:15;;;;;;;1.42;1.33;;;23.70;51.20;;;;;;6272154;28;20055;-69
2022/07/01 05:34:16;;;;;;;1.20;1.10;;;23.70;51.20;;;;;;6271032;28;20036;-68
2022/07/01 05:37:18;;;;;;;1.30;1.20;;;23.70;51.20;;;;;;6264585;28;20048;-68
2022/07/01 05:40:19;;;;;;;1.35;1.20;;;23.70;51.20;;;;;;6215706;28;20026;-69
2022/07/01 05:43:20;;;;;;;1.15;1.05;;;23.70;51.20;;;;;;6213004;28;20113;-68
2022/07/01 05:46:21;;;;;;;0.90;0.90;;;23.70;51.30;;;;;;6264503;23;20751;-69
2022/07/01 05:49:21;;;;;;;2.15;0.88;;;23.70;51.40;;;;;;6196159;28;20458;-69
2022/07/01 05:52:22;;;;;;;1.55;1.15;;;23.70;51.40;;;;;;6195983;28;20026;-69
2022/07/01 05:55:22;;;;;;;1.13;1.00;;;23.70;52.30;;;;;;6195299;28;20512;-69
2022/07/01 05:58:23;;;;;;;1.50;1.17;;;23.70;51.50;;;;;;6195114;28;20044;-69
2022/07/01 06:01:27;;;;;;;0.93;0.90;;;23.70;51.50;;;;;;6191421;28;20050;-69
2022/07/01 06:04:27;;;;;;;1.00;1.00;;;23.70;51.50;;;;;;6197687;28;20113;-69
2022/07/01 06:07:28;;;;;;;1.20;1.10;;;23.70;51.40;;;;;;6198347;28;20032;-68
2022/07/01 06:10:29;;;;;;;1.10;1.00;;;23.70;51.50;;;;;;6199111;28;20492;-69
2022/07/01 06:13:30;;;;;;;1.20;1.10;;;23.70;51.50;;;;;;6198625;28;20019;-69
2022/07/01 06:16:31;;;;;;;1.30;1.10;;;23.60;51.30;;;;;;6198959;28;20029;-69
2022/07/01 06:19:31;;;;;;;2.55;1.02;;;23.70;51.40;;;;;;6198069;28;20026;-69
2022/07/01 06:22:32;;;;;;;2.88;1.15;;;23.70;51.40;;;;;;6198797;28;20022;-69
2022/07/01 06:25:33;;;;;;;1.70;1.20;;;23.60;51.30;;;;;;6198596;28;20113;-69
2022/07/01 06:28:35;;;;;;;1.30;1.20;;;23.60;51.40;;;;;;6198333;28;20420;-69
2022/07/01 06:31:36;;;;;;;1.70;1.40;;;23.60;51.30;;;;;;6180680;28;20030;-69
2022/07/01 06:34:37;;;;;;;1.30;1.20;;;23.60;51.40;;;;;;6180584;28;20069;-69
2022/07/01 06:37:37;;;;;;;1.08;0.98;;;23.60;51.40;;;;;;6198229;28;20034;-69
2022/07/01 06:40:38;;;;;;;1.63;1.23;;;23.60;51.30;;;;;;6196810;28;20081;-70
2022/07/01 06:43:39;;;;;;;1.30;1.20;;;23.60;51.30;;;;;;6198702;28;20026;-68
2022/07/01 06:46:39;;;;;;;1.35;1.20;;;23.60;51.40;;;;;;6197771;28;20069;-69
2022/07/01 06:49:40;;;;;;;1.50;1.05;;;23.60;51.40;;;;;;6198198;28;20503;-68
2022/07/01 06:52:41;;;;;;;1.20;1.10;;;23.60;51.40;;;;;;6196460;28;20035;-69
2022/07/01 06:55:42;;;;;;;1.30;1.20;;;23.60;51.40;;;;;;6197705;28;20022;-69
2022/07/01 06:58:43;;;;;;;1.67;1.20;;;23.60;51.40;;;;;;6197625;28;20113;-69
2022/07/01 07:01:43;;;;;;;1.33;1.15;;;23.60;51.40;;;;;;6198032;28;20030;-69
2022/07/01 07:04:44;;;;;;;1.20;1.10;;;23.60;51.40;;;;;;6196542;28;20031;-69
2022/07/01 07:07:44;;;;;;;1.50;1.20;;;23.60;51.40;;;;;;6175231;28;20023;-69
2022/07/01 07:10:45;;;;;;;1.40;1.15;;;23.60;51.40;;;;;;6197060;28;20019;-69
2022/07/01 07:13:46;;;;;;;1.48;1.10;;;23.60;51.40;;;;;;6179654;28;20425;-69
2022/07/01 07:16:47;;;;;;;1.20;1.00;;;23.60;51.40;;;;;;6196964;28;20422;-69
2022/07/01 07:19:47;;;;;;;1.35;1.10;;;23.60;51.40;;;;;;6196796;28;20428;-69
2022/07/01 07:22:48;;;;;;;1.40;1.10;;;23.60;51.40;;;;;;6198812;28;20104;-69
2022/07/01 07:25:48;;;;;;;1.17;1.08;;;23.60;51.40;;;;;;6198741;28;20033;-69
2022/07/01 07:28:51;;;;;;;1.10;1.00;;;23.60;51.40;;;;;;6198460;28;20019;-69
2022/07/01 07:31:51;;;;;;;1.10;1.00;;;23.60;52.10;;;;;;6198287;28;20022;-68
2022/07/01 07:34:52;;;;;;;1.25;1.15;;;23.60;51.50;;;;;;6197755;28;20117;-69
2022/07/01 07:37:53;;;;;;;1.55;1.25;;;23.60;51.50;;;;;;6198100;28;20547;-69
2022/07/01 07:40:54;;;;;;;1.20;1.10;;;23.60;51.60;;;;;;6197424;28;20117;-69
2022/07/01 07:43:54;;;;;;;1.65;1.40;;;23.60;51.50;;;;;;6179296;28;20077;-69
2022/07/01 07:46:56;;;;;;;1.10;1.00;;;23.60;51.50;;;;;;6173035;28;20109;-68
2022/07/01 07:49:57;;;;;;;1.52;1.30;;;23.60;51.50;;;;;;6194064;28;20034;-69
2022/07/01 07:52:58;;;;;;;2.95;1.40;;;23.60;51.50;;;;;;6196585;28;20034;-70
2022/07/01 07:55:59;;;;;;;3.58;1.42;;;23.70;51.70;;;;;;6196152;28;20101;-70
2022/07/01 07:58:59;;;;;;;2.42;0.95;;;23.70;52.30;;;;;;6195320;28;20030;-69
2022/07/01 08:02:00;;;;;;;1.58;1.20;;;23.70;52.10;;;;;;6196399;28;20070;-69
2022/07/01 08:05:01;;;;;;;1.23;1.00;;;23.80;49.50;;;;;;6195996;28;20053;-69
2022/07/01 08:08:02;;;;;;;1.23;1.13;;;23.90;48.70;;;;;;6194732;28;20503;-69
2022/07/01 08:11:02;;;;;;;1.00;0.90;;;23.90;48.20;;;;;;6179343;28;20585;-69
2022/07/01 08:14:03;;;;;;;1.23;1.13;;;23.90;48.00;;;;;;6196057;28;20511;-69
2022/07/01 08:17:04;;;;;;;1.25;1.15;;;24.00;48.00;;;;;;6196824;28;20647;-69
2022/07/01 08:20:05;;;;;;;2.03;1.25;;;24.00;47.90;;;;;;6191676;28;20034;-69
2022/07/01 08:23:05;;;;;;;4.00;1.13;;;24.00;48.50;;;;;;6185884;28;20032;-69
2022/07/01 08:26:06;;;;;;;1.00;0.98;;;24.10;47.90;;;;;;6194924;28;20022;-69
2022/07/01 08:29:07;;;;;;;4.50;1.20;;;24.10;47.90;;;;;;6183045;28;20038;-69
2022/07/01 08:32:08;;;;;;;4.03;1.08;;;24.10;47.90;;;;;;6195740;28;20026;-69
2022/07/01 08:35:08;;;;;;;1.10;1.00;;;24.10;47.80;;;;;;6195763;28;20045;-69
2022/07/01 08:38:09;;;;;;;1.48;1.20;;;24.10;47.60;;;;;;6195425;28;20665;-69
2022/07/01 08:41:13;;;;;;;1.63;1.00;;;24.20;47.70;;;;;;6195085;28;20069;-69
2022/07/01 08:44:14;;;;;;;1.10;1.00;;;24.20;47.60;;;;;;6205213;28;20524;-69
2022/07/01 08:47:15;;;;;;;1.27;1.17;;;24.20;47.50;;;;;;6197772;28;20054;-69
2022/07/01 08:50:16;;;;;;;2.65;1.10;;;24.20;47.50;;;;;;6195726;28;20089;-69
2022/07/01 08:53:17;;;;;;;1.83;1.38;;;24.20;47.30;;;;;;6190976;28;20026;-69
2022/07/01 08:59:36;;;;;;;1.25;1.15;;;24.20;47.30;;;;;;6201314;28;20034;-69
2022/07/01 09:02:53;;;;;;;1.23;1.08;;;24.20;47.30;;;;;;6199730;28;20057;-69
2022/07/01 09:05:54;;;;;;;1.35;1.10;;;24.20;47.20;;;;;;6200186;28;20535;-69
2022/07/01 09:09:09;;;;;;;1.30;1.00;;;24.20;47.20;;;;;;6200520;28;20030;-69
2022/07/01 09:12:10;;;;;;;1.90;1.35;;;24.20;47.10;;;;;;6181459;28;20388;-68
2022/07/01 09:15:29;;;;;;;1.10;1.00;;;24.20;47.00;;;;;;6199399;28;20287;-69
2022/07/01 09:18:30;;;;;;;1.27;0.90;;;24.20;47.00;;;;;;6200268;28;20042;-69
2022/07/01 09:21:32;;;;;;;1.13;1.02;;;24.20;47.00;;;;;;6199414;28;20027;-69
2022/07/01 09:24:35;;;;;;;1.60;1.20;;;24.20;47.30;;;;;;6200434;28;20027;-69
2022/07/01 09:27:36;;;;;;;1.70;1.13;;;24.10;48.30;;;;;;6199579;28;20034;-68
2022/07/01 09:30:37;;;;;;;2.95;1.35;;;24.00;48.80;;;;;;6199656;28;20037;-69
2022/07/01 09:33:38;;;;;;;1.25;1.08;;;24.00;49.10;;;;;;6199761;28;20038;-69
2022/07/01 09:36:42;;;;;;;1.20;1.02;;;23.90;49.20;;;;;;6182464;28;20062;-69
2022/07/01 09:39:49;;;;;;;6.55;1.27;;;23.90;49.50;;;;;;6182238;28;20077;-68
2022/07/01 09:42:50;;;;;;;2.25;1.10;;;23.90;49.50;;;;;;6196592;28;20113;-69
2022/07/01 09:45:52;;;;;;;3.63;1.50;;;23.90;49.50;;;;;;6163002;28;20048;-69
2022/07/01 09:48:53;;;;;;;1.67;1.58;;;23.90;49.70;;;;;;6199650;28;20057;-68
2022/07/01 09:51:53;;;;;;;3.28;1.75;;;23.80;49.70;;;;;;6198632;28;20019;-69
2022/07/01 09:54:54;;;;;;;3.67;1.50;;;23.80;49.80;;;;;;6180286;28;20041;-69
2022/07/01 09:57:55;;;;;;;11.38;1.55;;;23.80;50.30;;;;;;6193240;28;20121;-69
2022/07/01 10:00:55;;;;;;;2.75;1.73;;;23.80;50.20;;;;;;6181887;28;20038;-69
2022/07/01 10:03:56;;;;;;;2.22;1.42;;;23.80;50.50;;;;;;6199236;28;20121;-69
2022/07/01 10:07:15;;;;;;;2.25;1.42;;;23.80;50.50;;;;;;6198375;28;20484;-69
2022/07/01 10:10:41;;;;;;;2.67;1.52;;;23.80;50.70;;;;;;6198412;28;20113;-69
2022/07/01 10:13:42;;;;;;;3.00;1.65;;;23.80;50.70;;;;;;6198496;28;20046;-69
2022/07/01 10:16:48;;;;;;;3.15;1.52;;;23.80;50.70;;;;;;6192745;28;20432;-69
2022/07/01 10:19:55;;;;;;;6.45;1.65;;;23.80;51.00;;;;;;6198672;28;20038;-69
2022/07/01 10:23:07;;;;;;;3.25;1.70;;;23.80;52.30;;;;;;6198162;28;20576;-69
2022/07/01 10:26:10;;;;;;;2.05;1.20;;;23.70;51.90;;;;;;6198570;28;20081;-69
2022/07/01 10:29:35;;;;;;;5.35;1.50;;;23.70;53.30;;;;;;6198256;28;20071;-69
2022/07/01 10:32:45;;;;;;;3.77;1.40;;;23.70;52.80;;;;;;6180309;28;20042;-69
2022/07/01 10:35:47;;;;;;;2.08;1.20;;;23.70;52.50;;;;;;6198696;28;20037;-69
2022/07/01 10:42:05;;;;;;;4.30;2.55;;;23.70;54.10;;;;;;6190571;28;20069;-69
2022/07/01 10:45:11;;;;;;;2.80;2.00;;;23.70;55.90;;;;;;6158000;28;20063;-69
2022/07/01 10:48:22;;;;;;;4.18;2.15;;;23.60;55.70;;;;;;6191249;28;20050;-69
2022/07/01 10:51:53;;;;;;;7.95;2.22;;;23.60;56.40;;;;;;6191433;28;20038;-69
2022/07/01 10:54:55;;;;;;;7.32;1.85;;;23.60;55.80;;;;;;6190823;28;20425;-69
2022/07/01 10:57:56;;;;;;;4.03;2.00;;;23.60;56.30;;;;;;6190606;28;20424;-69
2022/07/01 11:00:57;;;;;;;7.43;2.13;;;23.60;55.60;;;;;;6190974;28;20041;-69
2022/07/01 11:03:58;;;;;;;3.15;1.50;;;23.60;55.20;;;;;;6171990;28;20038;-69
2022/07/01 11:06:58;;;;;;;4.78;1.20;;;23.60;55.20;;;;;;6190823;28;20101;-69
2022/07/01 11:10:01;;;;;;;7.70;1.58;;;23.60;55.30;;;;;;6191050;28;20116;-69
2022/07/01 11:13:02;;;;;;;9.25;1.20;;;23.60;55.60;;;;;;6172042;28;20117;-69
2022/07/01 11:16:04;;;;;;;3.85;1.48;;;23.60;55.40;;;;;;6189398;28;20719;-69
2022/07/01 11:19:06;;;;;;;3.83;1.02;;;23.50;55.50;;;;;;6191282;28;20448;-70
2022/07/01 11:22:07;;;;;;;4.32;1.20;;;23.60;55.90;;;;;;6181754;28;20408;-69
2022/07/01 11:25:10;;;;;;;1.80;0.98;;;23.60;55.90;;;;;;6192757;28;20041;-69
2022/07/01 11:28:12;;;;;;;3.67;0.90;;;23.60;56.60;;;;;;6192957;28;20092;-69
2022/07/01 11:31:13;;;;;;;2.28;1.00;;;23.50;56.60;;;;;;6188823;28;20078;-69
2022/07/01 11:34:16;;;;;;;2.67;1.02;;;23.50;56.60;;;;;;6193594;28;20110;-69
2022/07/01 11:40:36;;;;;;;2.53;1.27;;;23.50;57.20;;;;;;6193183;28;20125;-69
2022/07/01 11:43:38;;;;;;;1.52;0.70;;;23.50;57.00;;;;;;6175401;28;20091;-69
2022/07/01 11:46:39;;;;;;;1.63;0.90;;;23.50;56.70;;;;;;6176249;28;20150;-69
2022/07/01 11:49:48;;;;;;;4.35;1.15;;;23.60;56.40;;;;;;6192891;28;20026;-69
2022/07/01 11:52:52;;;;;;;2.08;1.00;;;23.60;56.00;;;;;;6193003;28;20038;-69
2022/07/01 11:55:53;;;;;;;2.58;1.00;;;23.60;55.60;;;;;;6176268;28;20073;-69
2022/07/01 11:58:56;;;;;;;1.60;0.80;;;23.60;55.20;;;;;;6190652;28;20038;-69
2022/07/01 12:01:56;;;;;;;1.70;0.90;;;23.60;55.00;;;;;;6170570;28;20112;-69
2022/07/01 12:05:00;;;;;;;1.52;0.85;;;23.60;54.70;;;;;;6172466;28;20042;-69
2022/07/01 12:08:02;;;;;;;1.88;0.82;;;23.60;54.50;;;;;;6190173;28;20030;-69
2022/07/01 12:11:02;;;;;;;1.92;0.98;;;23.60;54.20;;;;;;6192317;28;20041;-69
2022/07/01 12:14:03;;;;;;;1.73;0.77;;;23.60;54.20;;;;;;6190619;28;20484;-69
2022/07/01 12:17:08;;;;;;;1.20;0.70;;;23.60;54.00;;;;;;6191077;28;20042;-70
2022/07/01 12:20:09;;;;;;;1.45;0.80;;;23.60;53.90;;;;;;6190067;28;20085;-69
2022/07/01 12:23:13;;;;;;;1.05;0.80;;;23.60;53.80;;;;;;6191798;28;20026;-69
2022/07/01 12:26:17;;;;;;;1.67;0.90;;;23.60;53.60;;;;;;6174596;28;20037;-69
2022/07/01 12:29:19;;;;;;;1.30;0.60;;;23.60;53.60;;;;;;6191829;28;20038;-69
2022/07/01 12:32:26;;;;;;;1.83;0.95;;;23.60;53.60;;;;;;6191913;28;20068;-69
2022/07/01 12:35:37;;;;;;;1.20;0.90;;;23.60;53.50;;;;;;6192245;28;20037;-69
2022/07/01 12:38:38;;;;;;;1.52;1.00;;;23.60;53.50;;;;;;6174954;28;20485;-69
2022/07/01 12:41:40;;;;;;;1.45;0.80;;;23.60;53.40;;;;;;6189995;28;20050;-69
2022/07/01 12:44:45;;;;;;;1.30;0.90;;;23.60;53.50;;;;;;6191639;28;20622;-69
2022/07/01 12:47:48;;;;;;;2.45;0.90;;;23.60;53.30;;;;;;6171489;28;20101;-69
2022/07/01 12:50:52;;;;;;;1.05;0.80;;;23.60;53.30;;;;;;6186977;28;20080;-69
2022/07/01 12:53:53;;;;;;;3.58;1.02;;;23.60;53.30;;;;;;6183401;28;20045;-69
2022/07/01 12:56:54;;;;;;;0.85;0.60;;;23.60;53.30;;;;;;6184698;28;20456;-69
2022/07/01 12:59:54;;;;;;;1.05;0.93;;;23.60;53.20;;;;;;6191743;28;20038;-69
2022/07/01 13:02:57;;;;;;;1.15;0.80;;;23.60;53.20;;;;;;6193270;28;20539;-69
2022/07/01 13:05:58;;;;;;;1.48;0.80;;;23.60;53.20;;;;;;6189610;28;20041;-69
2022/07/01 13:08:58;;;;;;;1.88;1.10;;;23.60;53.10;;;;;;6187423;28;20034;-69
2022/07/01 13:11:59;;;;;;;2.22;0.90;;;23.60;53.10;;;;;;6187998;28;20042;-68
2022/07/01 13:14:59;;;;;;;1.15;0.70;;;23.60;53.10;;;;;;6189193;28;20064;-69
2022/07/01 13:18:01;;;;;;;0.90;0.70;;;23.60;53.10;;;;;;6170050;28;20042;-69
2022/07/01 13:21:02;;;;;;;2.38;1.05;;;23.60;53.10;;;;;;6186660;28;20121;-69
2022/07/01 13:24:03;;;;;;;1.05;0.82;;;23.60;53.10;;;;;;6187147;28;20023;-69
2022/07/01 13:27:04;;;;;;;0.85;0.82;;;23.60;53.10;;;;;;6170340;28;20751;-69
2022/07/01 13:30:07;;;;;;;1.45;1.10;;;23.60;53.10;;;;;;6188067;28;20468;-69
2022/07/01 13:33:07;;;;;;;0.80;0.70;;;23.60;53.10;;;;;;6187403;28;20039;-69
2022/07/01 13:36:08;;;;;;;0.95;0.60;;;23.60;53.10;;;;;;6169374;28;20037;-69
2022/07/01 13:39:09;;;;;;;0.98;0.88;;;23.60;53.10;;;;;;6190842;28;20042;-70
2022/07/01 13:42:09;;;;;;;1.10;0.85;;;23.60;53.10;;;;;;6178017;28;20038;-69
2022/07/01 13:45:10;;;;;;;1.38;0.85;;;23.60;53.70;;;;;;6196296;28;20033;-69
2022/07/01 13:48:11;;;;;;;1.20;0.80;;;23.60;53.10;;;;;;6196130;28;20042;-69
2022/07/01 13:51:12;;;;;;;1.10;0.70;;;23.60;53.10;;;;;;6179417;28;20512;-69
2022/07/01 13:54:12;;;;;;;0.95;0.73;;;23.60;53.10;;;;;;6195920;28;20034;-69
2022/07/01 13:57:13;;;;;;;0.93;0.80;;;23.60;53.10;;;;;;6195621;28;20080;-69
2022/07/01 14:00:15;;;;;;;0.75;0.70;;;23.60;53.10;;;;;;6177717;28;20058;-69
2022/07/01 14:03:15;;;;;;;0.80;0.75;;;23.60;53.10;;;;;;6195386;28;20034;-69
2022/07/01 14:06:16;;;;;;;0.70;0.70;;;23.60;53.10;;;;;;6195413;28;20085;-69
2022/07/01 14:09:17;;;;;;;1.60;1.00;;;23.60;53.10;;;;;;6195095;28;20034;-69
2022/07/01 14:12:18;;;;;;;1.00;0.70;;;23.60;53.00;;;;;;6194991;28;20058;-69
2022/07/01 14:15:18;;;;;;;0.82;0.77;;;23.60;53.10;;;;;;6195034;28;20105;-69
2022/07/01 14:18:20;;;;;;;1.38;0.73;;;23.60;53.00;;;;;;6195177;28;20042;-69
2022/07/01 14:21:21;;;;;;;1.70;0.70;;;23.60;53.00;;;;;;6194399;28;20058;-69
2022/07/01 14:24:21;;;;;;;0.70;0.70;;;23.60;53.00;;;;;;6177924;28;20148;-68
2022/07/01 14:27:22;;;;;;;0.55;0.50;;;23.60;53.00;;;;;;6177744;28;20035;-69
2022/07/01 14:30:23;;;;;;;0.90;0.70;;;23.60;53.00;;;;;;6194525;28;20106;-68
2022/07/01 14:33:23;;;;;;;0.93;0.82;;;23.60;53.00;;;;;;6177189;28;20030;-69
2022/07/01 14:36:24;;;;;;;1.45;0.90;;;23.60;53.00;;;;;;6194939;28;20045;-69
2022/07/01 14:39:25;;;;;;;0.75;0.70;;;23.50;52.90;;;;;;6195201;28;20035;-69
2022/07/01 14:42:27;;;;;;;0.98;0.70;;;23.60;53.00;;;;;;6194598;28;20031;-69
2022/07/01 14:45:27;;;;;;;1.33;0.80;;;23.60;53.00;;;;;;6193657;28;20493;-69
2022/07/01 14:48:28;;;;;;;0.90;0.63;;;23.60;53.10;;;;;;6194481;28;20050;-69
2022/07/01 14:51:29;;;;;;;0.82;0.73;;;23.60;53.00;;;;;;6193235;28;20574;-69
2022/07/01 14:54:29;;;;;;;1.40;0.68;;;23.50;52.90;;;;;;6193620;28;20030;-69
2022/07/01 14:57:31;;;;;;;0.98;0.80;;;23.50;52.90;;;;;;6194626;28;20097;-68
2022/07/01 15:00:36;;;;;;;1.10;0.77;;;23.50;53.90;;;;;;6194370;28;20058;-68
2022/07/01 15:03:37;;;;;;;1.10;0.80;;;23.50;55.20;;;;;;6194291;28;20034;-69
2022/07/01 15:06:38;;;;;;;2.75;0.93;;;23.40;55.60;;;;;;6176662;28;20034;-69
2022/07/01 15:09:39;;;;;;;1.17;0.80;;;23.40;55.90;;;;;;6194722;28;20408;-69
2022/07/01 15:12:39;;;;;;;0.93;0.60;;;23.40;56.40;;;;;;6191543;28;20038;-69
2022/07/01 15:15:40;;;;;;;1.85;0.82;;;23.40;56.40;;;;;;6189216;28;20026;-69
2022/07/01 15:18:41;;;;;;;1.63;0.68;;;23.40;56.20;;;;;;6175654;28;21520;-69
2022/07/01 15:21:42;;;;;;;1.52;0.98;;;23.50;56.10;;;;;;6174636;28;20744;-69
2022/07/01 15:24:43;;;;;;;0.95;0.70;;;23.50;55.80;;;;;;6193689;28;20062;-69
2022/07/01 15:27:44;;;;;;;1.42;0.98;;;23.50;55.50;;;;;;6191228;28;20404;-69
2022/07/01 15:30:46;;;;;;;2.88;0.80;;;23.50;55.30;;;;;;6176123;28;20057;-68
2022/07/01 15:33:48;;;;;;;1.05;0.55;;;23.50;55.10;;;;;;6193581;28;20045;-69
2022/07/01 15:36:48;;;;;;;1.70;0.88;;;23.50;55.00;;;;;;6174783;28;20034;-69
2022/07/01 15:39:49;;;;;;;3.28;0.82;;;23.50;55.20;;;;;;6193232;28;20037;-69
2022/07/01 15:42:50;;;;;;;1.40;0.88;;;23.40;55.50;;;;;;6174816;28;20214;-69
2022/07/01 15:45:50;;;;;;;1.20;0.85;;;23.40;56.10;;;;;;6192159;28;20034;-69
2022/07/01 15:48:51;;;;;;;1.20;1.00;;;23.30;56.40;;;;;;6191758;28;20602;-68
2022/07/01 15:51:52;;;;;;;4.65;1.08;;;23.30;57.00;;;;;;6191540;28;20121;-68
2022/07/01 15:54:52;;;;;;;1.98;0.98;;;23.30;57.20;;;;;;6192101;28;20034;-69
2022/07/01 15:57:54;;;;;;;1.83;1.00;;;23.30;57.30;;;;;;6192602;28;20057;-69
2022/07/01 16:00:54;;;;;;;0.88;0.80;;;23.30;57.50;;;;;;6174007;28;20038;-69
2022/07/01 16:03:56;;;;;;;2.22;0.85;;;23.30;57.50;;;;;;6192258;28;20527;-69
2022/07/01 16:06:56;;;;;;;1.55;1.00;;;23.30;57.50;;;;;;6192774;28;20400;-68